Time;durP1;ratioP1;P1;durP2;ratioP2;P2;SDS_P1;SDS_P2;PMS_P1;PMS_P2;Temp;Humidity;BMP_temperature;BMP_pressure;BME280_temperature;BME280_humidity;BME280_pressure;Samples;Min_cycle;Max_cycle;Signal;HPM_P1;HPM_P2
2024/04/15 00:01:04;;;;;;;11.48;3.25;;;14.30;99.90;;;;;;5393436;26;20018;-78
2024/04/15 00:03:30;;;;;;;5.47;3.10;;;14.30;99.90;;;;;;5403207;26;20008;-78
2024/04/15 00:05:56;;;;;;;6.68;3.08;;;14.40;99.90;;;;;;5405550;26;20011;-77
2024/04/15 00:08:21;;;;;;;4.38;2.83;;;14.60;99.90;;;;;;5397656;26;20365;-77
2024/04/15 00:10:47;;;;;;;5.40;2.67;;;14.40;99.90;;;;;;5396942;26;20011;-77
2024/04/15 00:13:13;;;;;;;8.88;3.47;;;14.40;99.90;;;;;;5395673;26;20000;-77
2024/04/15 00:15:42;;;;;;;7.53;3.47;;;14.60;99.90;;;;;;5400621;26;19995;-78
2024/04/15 00:18:08;;;;;;;6.43;3.47;;;14.30;99.90;;;;;;5394580;26;19996;-79
2024/04/15 00:20:33;;;;;;;5.35;3.08;;;14.20;99.90;;;;;;5392003;26;20004;-78
2024/04/15 00:22:59;;;;;;;8.85;3.13;;;14.40;99.90;;;;;;5397974;26;20000;-78
2024/04/15 00:25:24;;;;;;;6.38;3.15;;;14.40;99.90;;;;;;5404131;26;20000;-78
2024/04/15 00:27:50;;;;;;;10.50;2.83;;;14.40;99.90;;;;;;5393857;26;20007;-79
2024/04/15 00:30:15;;;;;;;11.15;3.90;;;14.50;99.90;;;;;;5384093;26;20007;-78
2024/04/15 00:32:41;;;;;;;9.27;2.70;;;14.30;99.90;;;;;;5403080;26;20078;-77
2024/04/15 00:35:06;;;;;;;15.88;3.83;;;14.20;99.90;;;;;;5403171;26;20464;-78
2024/04/15 00:37:32;;;;;;;6.53;3.03;;;14.30;99.90;;;;;;5409046;26;20014;-78
2024/04/15 00:39:58;;;;;;;11.52;3.40;;;14.30;99.90;;;;;;5399275;26;20032;-78
2024/04/15 00:42:23;;;;;;;8.20;3.13;;;14.20;99.90;;;;;;5394166;26;19999;-79
2024/04/15 00:44:50;;;;;;;10.88;3.30;;;14.30;99.90;;;;;;5395880;26;19996;-78
2024/04/15 00:47:16;;;;;;;6.18;3.08;;;14.30;99.90;;;;;;5402842;26;19992;-78
2024/04/15 00:49:42;;;;;;;8.40;2.80;;;14.30;99.90;;;;;;5401205;26;20441;-77
2024/04/15 00:52:08;;;;;;;9.43;2.92;;;14.20;99.90;;;;;;5387552;26;20441;-77
2024/04/15 00:54:35;;;;;;;6.22;2.90;;;14.30;99.90;;;;;;5399804;26;20007;-79
2024/04/15 00:57:02;;;;;;;5.50;2.50;;;14.10;99.90;;;;;;5398933;26;20020;-80
2024/04/15 00:59:29;;;;;;;8.50;3.10;;;14.00;99.90;;;;;;5408677;26;20496;-77
2024/04/15 01:01:56;;;;;;;5.07;2.85;;;14.00;99.90;;;;;;5395844;26;20015;-79
2024/04/15 01:04:22;;;;;;;9.20;3.42;;;14.00;99.90;;;;;;5398045;26;20387;-78
2024/04/15 01:06:48;;;;;;;6.10;3.10;;;14.00;99.90;;;;;;5405206;26;20004;-78
2024/04/15 01:09:13;;;;;;;4.25;2.92;;;14.10;99.90;;;;;;5400096;26;20460;-79
2024/04/15 01:11:39;;;;;;;5.55;3.13;;;14.20;99.90;;;;;;5399037;26;20000;-78
2024/04/15 01:14:04;;;;;;;4.35;2.60;;;14.10;99.90;;;;;;5390914;26;20000;-78
2024/04/15 01:16:36;;;;;;;9.05;2.63;;;14.10;99.90;;;;;;5397193;26;20001;-77
2024/04/15 01:19:02;;;;;;;6.65;3.22;;;14.10;99.90;;;;;;5403542;26;20000;-79
2024/04/15 01:21:27;;;;;;;7.03;3.10;;;13.90;99.90;;;;;;5395962;26;20004;-78
2024/04/15 01:23:53;;;;;;;5.50;3.47;;;13.90;99.90;;;;;;5386853;26;20016;-78
2024/04/15 01:26:18;;;;;;;7.53;3.03;;;14.00;99.90;;;;;;5405066;26;20479;-78
2024/04/15 01:28:44;;;;;;;6.18;3.78;;;14.00;99.90;;;;;;5405697;26;20369;-79
2024/04/15 01:31:09;;;;;;;4.93;3.05;;;14.10;99.90;;;;;;5406873;26;20476;-77
2024/04/15 01:33:35;;;;;;;7.13;3.10;;;14.00;99.90;;;;;;5399210;26;20013;-78
2024/04/15 01:36:01;;;;;;;6.25;2.90;;;14.20;99.90;;;;;;5398239;26;20470;-76
2024/04/15 01:38:27;;;;;;;6.32;2.90;;;14.30;99.90;;;;;;5430509;26;20465;-78
2024/04/15 01:40:52;;;;;;;6.72;2.72;;;14.30;99.90;;;;;;5403641;26;20004;-79
2024/04/15 01:43:18;;;;;;;9.13;3.20;;;14.20;99.90;;;;;;5395619;26;20433;-78
2024/04/15 01:45:43;;;;;;;4.70;2.70;;;14.30;99.90;;;;;;5393192;26;20010;-80
2024/04/15 01:48:09;;;;;;;4.90;3.00;;;14.50;99.90;;;;;;5394883;26;20034;-80
2024/04/15 01:50:34;;;;;;;4.45;2.83;;;14.40;99.90;;;;;;5402962;26;20396;-79
2024/04/15 01:53:00;;;;;;;8.52;2.55;;;14.60;99.90;;;;;;5395444;26;20012;-78
2024/04/15 01:55:25;;;;;;;4.80;3.05;;;14.50;99.90;;;;;;5398677;26;20073;-79
2024/04/15 01:57:51;;;;;;;8.13;3.33;;;14.50;99.90;;;;;;5401645;26;21342;-78
2024/04/15 02:00:16;;;;;;;16.00;3.67;;;14.50;99.90;;;;;;5401220;26;20019;-77
2024/04/15 02:02:42;;;;;;;9.55;3.05;;;14.50;99.90;;;;;;5406256;26;20422;-77
2024/04/15 02:05:08;;;;;;;6.57;3.03;;;14.50;99.90;;;;;;5399817;26;20000;-79
2024/04/15 02:07:37;;;;;;;5.50;3.05;;;14.40;99.90;;;;;;5395830;26;20080;-78
2024/04/15 02:10:02;;;;;;;5.15;3.10;;;14.50;99.90;;;;;;5396253;26;20000;-79
2024/04/15 02:12:28;;;;;;;9.95;2.85;;;14.50;99.90;;;;;;5403267;26;20011;-78
2024/04/15 02:14:53;;;;;;;11.13;2.70;;;14.50;99.90;;;;;;5399556;26;20018;-79
2024/04/15 02:17:19;;;;;;;6.65;3.05;;;14.60;99.90;;;;;;5388215;26;20012;-77
2024/04/15 02:19:44;;;;;;;7.07;3.22;;;14.50;99.90;;;;;;5401124;26;20015;-77
2024/04/15 02:22:10;;;;;;;4.47;2.97;;;14.60;99.90;;;;;;5403696;26;20004;-77
2024/04/15 02:24:36;;;;;;;6.70;2.85;;;14.40;99.90;;;;;;5407680;26;20010;-79
2024/04/15 02:27:02;;;;;;;4.20;2.83;;;14.30;99.90;;;;;;5404685;26;20011;-78
2024/04/15 02:29:27;;;;;;;5.95;2.85;;;14.30;99.90;;;;;;5394654;26;20000;-78
2024/04/15 02:31:53;;;;;;;3.20;2.00;;;14.50;99.90;;;;;;5400155;26;19999;-80
2024/04/15 02:34:20;;;;;;;5.40;2.67;;;14.50;99.90;;;;;;5401232;26;20015;-79
2024/04/15 02:36:45;;;;;;;6.25;3.00;;;14.40;99.90;;;;;;5400909;26;20438;-77
2024/04/15 02:39:11;;;;;;;5.90;2.65;;;14.50;99.90;;;;;;5396961;26;19996;-78
2024/04/15 02:41:36;;;;;;;5.10;2.80;;;14.40;99.90;;;;;;5395688;26;20000;-79
2024/04/15 02:44:02;;;;;;;4.22;2.75;;;14.50;99.90;;;;;;5405443;26;20003;-77
2024/04/15 02:46:27;;;;;;;3.25;2.50;;;14.50;99.90;;;;;;5394938;26;20341;-77
2024/04/15 02:48:53;;;;;;;3.67;2.25;;;14.70;99.90;;;;;;5390352;26;20493;-79
2024/04/15 02:51:18;;;;;;;2.42;1.95;;;14.90;99.90;;;;;;5401292;26;20468;-78
2024/04/15 02:53:44;;;;;;;12.43;2.15;;;15.00;99.90;;;;;;5403121;26;20018;-78
2024/04/15 02:56:09;;;;;;;4.63;2.50;;;15.00;99.90;;;;;;5404784;26;20480;-78
2024/04/15 02:58:35;;;;;;;4.70;2.22;;;15.10;99.90;;;;;;5399825;26;20004;-79
2024/04/15 03:01:00;;;;;;;2.85;1.67;;;15.10;99.90;;;;;;5395902;26;19999;-79
2024/04/15 03:03:26;;;;;;;4.82;2.30;;;15.20;99.90;;;;;;5400545;26;20004;-78
2024/04/15 03:05:51;;;;;;;6.65;2.53;;;15.10;99.90;;;;;;5403838;26;20000;-78
2024/04/15 03:08:17;;;;;;;2.60;2.08;;;15.10;99.90;;;;;;5398725;26;20531;-78
2024/04/15 03:10:42;;;;;;;7.25;2.20;;;15.20;99.90;;;;;;5394836;26;20081;-79
2024/04/15 03:13:08;;;;;;;3.50;1.90;;;15.20;99.90;;;;;;5393093;26;20000;-79
2024/04/15 03:15:33;;;;;;;3.33;1.95;;;15.10;99.90;;;;;;5405172;26;20073;-78
2024/04/15 03:17:59;;;;;;;3.55;2.35;;;15.20;99.90;;;;;;5398705;26;20073;-78
2024/04/15 03:20:28;;;;;;;5.50;2.10;;;15.20;99.90;;;;;;5405716;26;20097;-78
2024/04/15 03:22:54;;;;;;;3.97;2.00;;;15.30;99.90;;;;;;5397820;26;20015;-79
2024/04/15 03:25:21;;;;;;;4.15;2.17;;;15.20;99.90;;;;;;5398924;26;20007;-78
2024/04/15 03:27:47;;;;;;;2.83;1.70;;;15.20;99.90;;;;;;5406377;26;20203;-78
2024/04/15 03:30:13;;;;;;;3.92;1.83;;;15.10;99.90;;;;;;5397045;26;20010;-79
2024/04/15 03:32:39;;;;;;;3.92;2.20;;;15.20;99.90;;;;;;5392638;26;19996;-79
2024/04/15 03:35:07;;;;;;;9.20;2.40;;;15.20;99.90;;;;;;5398923;26;20031;-78
2024/04/15 03:37:32;;;;;;;12.57;2.20;;;15.20;99.90;;;;;;5405800;26;19999;-79
2024/04/15 03:39:58;;;;;;;2.95;2.00;;;15.10;99.90;;;;;;5401139;26;20018;-78
2024/04/15 03:42:23;;;;;;;3.90;2.08;;;15.10;99.90;;;;;;5388587;26;20000;-79
2024/04/15 03:44:54;;;;;;;6.82;2.33;;;15.10;99.90;;;;;;5399941;26;20468;-78
2024/04/15 03:47:19;;;;;;;3.90;2.20;;;15.10;99.90;;;;;;5406842;26;20003;-78
2024/04/15 03:49:45;;;;;;;7.75;2.53;;;14.90;99.90;;;;;;5408923;26;20014;-78
2024/04/15 03:52:10;;;;;;;3.20;2.30;;;14.90;99.90;;;;;;5411532;26;20453;-77
2024/04/15 03:54:38;;;;;;;5.40;2.60;;;14.90;99.90;;;;;;5400732;26;20004;-77
2024/04/15 03:57:04;;;;;;;5.30;2.40;;;14.80;99.90;;;;;;5403160;26;19995;-78
2024/04/15 03:59:29;;;;;;;4.85;2.13;;;14.90;99.90;;;;;;5404038;26;20084;-79
2024/04/15 04:01:55;;;;;;;10.07;2.50;;;15.00;99.90;;;;;;5399259;26;20447;-78
2024/04/15 04:04:20;;;;;;;4.28;2.60;;;15.00;99.90;;;;;;5393852;26;20019;-78
2024/04/15 04:06:46;;;;;;;9.30;2.85;;;15.00;99.90;;;;;;5400255;26;20205;-78
2024/04/15 04:09:11;;;;;;;3.72;2.42;;;14.80;99.90;;;;;;5407603;26;20028;-79
2024/04/15 04:11:37;;;;;;;8.23;2.70;;;14.70;99.90;;;;;;5402403;26;20461;-77
2024/04/15 04:14:03;;;;;;;6.60;2.88;;;14.70;99.90;;;;;;5392125;26;20010;-79
2024/04/15 04:16:28;;;;;;;7.50;2.85;;;14.80;99.90;;;;;;5401397;26;20007;-79
2024/04/15 04:18:54;;;;;;;5.03;2.83;;;14.70;99.90;;;;;;5405338;26;20068;-78
2024/04/15 04:21:19;;;;;;;9.30;3.00;;;14.70;99.90;;;;;;5406314;26;20011;-77
2024/04/15 04:23:45;;;;;;;5.93;3.03;;;14.60;99.90;;;;;;5404482;26;20343;-77
2024/04/15 04:26:10;;;;;;;8.63;3.40;;;14.60;99.90;;;;;;5394206;26;20000;-79
2024/04/15 04:28:36;;;;;;;7.13;3.10;;;14.60;99.90;;;;;;5400273;26;20016;-78
2024/04/15 04:31:05;;;;;;;6.20;3.22;;;14.60;99.90;;;;;;5406218;26;20011;-80
2024/04/15 04:33:31;;;;;;;9.18;2.75;;;14.60;99.90;;;;;;5400160;26;20004;-78
2024/04/15 04:35:58;;;;;;;9.48;3.17;;;14.60;99.90;;;;;;5398592;26;20337;-78
2024/04/15 04:38:23;;;;;;;10.80;3.50;;;14.70;99.90;;;;;;5402976;26;20011;-78
2024/04/15 04:40:59;;;;;;;3.95;2.50;;;14.70;99.90;;;;;;5408941;26;19996;-77
2024/04/15 04:43:24;;;;;;;13.35;3.38;;;14.60;99.90;;;;;;5432303;26;20389;-79
2024/04/15 04:45:50;;;;;;;8.15;3.60;;;14.60;99.90;;;;;;5411936;26;19999;-78
2024/04/15 04:48:16;;;;;;;13.15;4.07;;;14.70;99.90;;;;;;5403045;26;20007;-77
2024/04/15 04:50:42;;;;;;;8.75;3.08;;;14.70;99.90;;;;;;5400385;26;20051;-77
2024/04/15 04:53:07;;;;;;;7.13;3.13;;;14.60;99.90;;;;;;5408294;26;20000;-78
2024/04/15 04:55:36;;;;;;;8.45;3.22;;;14.60;99.90;;;;;;5396247;26;20000;-79
2024/04/15 04:58:06;;;;;;;5.88;3.20;;;14.60;99.90;;;;;;5393294;26;20049;-78
2024/04/15 05:00:32;;;;;;;6.50;3.45;;;14.60;99.90;;;;;;5391344;26;19996;-79
2024/04/15 05:02:57;;;;;;;6.78;3.10;;;14.70;99.90;;;;;;5408227;26;20014;-78
2024/04/15 05:05:23;;;;;;;7.22;3.17;;;14.60;99.90;;;;;;5400740;26;20001;-79
2024/04/15 05:07:49;;;;;;;14.48;4.00;;;14.60;99.90;;;;;;5397354;26;20736;-78
2024/04/15 05:10:14;;;;;;;8.30;3.38;;;14.60;99.90;;;;;;5403777;26;20000;-78
2024/04/15 05:12:40;;;;;;;10.77;2.92;;;14.60;99.90;;;;;;5406384;26;20004;-77
2024/04/15 05:15:06;;;;;;;8.32;3.22;;;14.50;99.90;;;;;;5407628;26;20014;-79
2024/04/15 05:17:32;;;;;;;5.75;2.80;;;14.60;99.90;;;;;;5407427;26;20007;-78
2024/04/15 05:19:57;;;;;;;10.35;2.78;;;14.60;99.90;;;;;;5397705;26;20015;-78
2024/04/15 05:22:23;;;;;;;9.38;3.03;;;14.60;99.90;;;;;;5398065;26;20453;-79
2024/04/15 05:24:49;;;;;;;6.20;3.05;;;14.60;99.90;;;;;;5406885;26;20357;-77
2024/04/15 05:27:14;;;;;;;8.98;3.10;;;14.60;99.90;;;;;;5398338;26;19996;-77
2024/04/15 05:29:40;;;;;;;5.07;2.97;;;14.60;99.90;;;;;;5394137;26;20000;-78
2024/04/15 05:32:06;;;;;;;7.72;3.38;;;14.70;99.90;;;;;;5402390;26;20080;-78
2024/04/15 05:34:33;;;;;;;7.70;2.90;;;14.60;99.90;;;;;;5405401;26;20000;-78
2024/04/15 05:36:59;;;;;;;5.32;2.72;;;14.60;99.90;;;;;;5404804;26;20035;-77
2024/04/15 05:39:24;;;;;;;4.82;2.90;;;14.70;99.90;;;;;;5404520;26;20619;-79
2024/04/15 05:41:50;;;;;;;6.95;3.38;;;14.50;99.90;;;;;;5407206;26;20469;-78
2024/04/15 05:44:15;;;;;;;4.90;3.20;;;14.50;99.90;;;;;;5403643;26;20010;-77
2024/04/15 05:46:51;;;;;;;10.27;3.45;;;14.60;99.90;;;;;;5432436;26;20011;-78
2024/04/15 05:49:18;;;;;;;8.75;3.58;;;14.70;99.90;;;;;;5404351;26;20010;-78
2024/04/15 05:51:45;;;;;;;6.22;3.65;;;14.60;99.90;;;;;;5395664;26;20085;-79
2024/04/15 05:54:10;;;;;;;7.07;3.15;;;14.50;99.90;;;;;;5400829;26;20353;-77
2024/04/15 05:56:36;;;;;;;7.95;3.30;;;14.60;99.90;;;;;;5407027;26;20012;-78
2024/04/15 05:59:01;;;;;;;8.40;3.30;;;14.70;99.90;;;;;;5400934;26;20003;-77
2024/04/15 06:01:27;;;;;;;10.55;3.85;;;14.80;99.90;;;;;;5405830;26;19997;-78
2024/04/15 06:03:52;;;;;;;8.43;3.95;;;14.80;99.90;;;;;;5403516;26;20003;-79
2024/04/15 06:06:18;;;;;;;10.70;4.80;;;14.70;99.90;;;;;;5406949;26;19999;-79
2024/04/15 06:08:44;;;;;;;6.60;3.22;;;14.70;99.90;;;;;;5406810;26;20014;-80
2024/04/15 06:11:09;;;;;;;5.32;3.20;;;14.80;99.90;;;;;;5407332;26;20019;-79
2024/04/15 06:13:35;;;;;;;6.82;3.47;;;14.80;99.90;;;;;;5400594;26;20012;-77
2024/04/15 06:16:00;;;;;;;12.68;3.70;;;14.70;99.90;;;;;;5398039;26;20052;-79
2024/04/15 06:18:26;;;;;;;7.13;3.50;;;14.80;99.90;;;;;;5406644;26;20008;-78
2024/04/15 06:20:51;;;;;;;5.03;3.30;;;14.70;99.90;;;;;;5402980;26;20000;-78
2024/04/15 06:23:17;;;;;;;6.18;3.50;;;14.80;99.90;;;;;;5391229;26;20489;-78
2024/04/15 06:25:42;;;;;;;11.98;3.10;;;14.90;99.90;;;;;;5397586;26;20371;-79
2024/04/15 06:28:08;;;;;;;6.75;3.35;;;14.90;99.90;;;;;;5406162;26;20341;-80
2024/04/15 06:30:34;;;;;;;6.35;3.50;;;14.90;99.90;;;;;;5399341;26;20384;-78
2024/04/15 06:33:00;;;;;;;5.97;3.30;;;14.80;99.90;;;;;;5399513;26;20010;-78
2024/04/15 06:35:25;;;;;;;12.13;3.17;;;14.90;99.90;;;;;;5405953;26;19999;-78
2024/04/15 06:37:51;;;;;;;6.90;3.20;;;14.80;99.90;;;;;;5406421;26;20449;-78
2024/04/15 06:40:17;;;;;;;13.75;3.25;;;14.90;99.90;;;;;;5404180;26;20467;-78
2024/04/15 06:42:42;;;;;;;8.05;3.42;;;14.90;99.90;;;;;;5406619;26;20007;-80
2024/04/15 06:45:08;;;;;;;7.53;3.55;;;15.00;99.90;;;;;;5401847;26;19995;-79
2024/04/15 06:47:33;;;;;;;6.10;2.60;;;15.00;99.90;;;;;;5393803;26;19995;-79
2024/04/15 06:49:59;;;;;;;12.13;3.38;;;15.10;99.90;;;;;;5406626;26;19995;-79
2024/04/15 06:52:24;;;;;;;5.68;3.30;;;15.20;99.90;;;;;;5399328;26;20005;-77
2024/04/15 06:54:50;;;;;;;3.58;2.50;;;15.20;99.90;;;;;;5387553;26;19996;-79
2024/04/15 06:57:15;;;;;;;5.75;2.55;;;15.20;99.90;;;;;;5398947;26;20499;-78
2024/04/15 06:59:41;;;;;;;8.98;3.20;;;15.20;99.90;;;;;;5404799;26;20007;-79
2024/04/15 07:02:08;;;;;;;4.55;2.53;;;15.20;99.90;;;;;;5408608;26;19992;-79
2024/04/15 07:04:34;;;;;;;6.18;3.20;;;15.30;99.90;;;;;;5406317;26;20076;-79
2024/04/15 07:06:59;;;;;;;5.88;2.50;;;15.30;99.90;;;;;;5406699;26;20460;-79
2024/04/15 07:09:25;;;;;;;9.02;2.95;;;15.20;99.90;;;;;;5403171;26;20534;-79
2024/04/15 07:11:50;;;;;;;8.88;2.67;;;15.20;99.90;;;;;;5401226;26;20073;-79
2024/04/15 07:14:16;;;;;;;9.30;2.75;;;15.20;99.90;;;;;;5407854;26;20003;-79
2024/04/15 07:16:41;;;;;;;4.25;2.42;;;15.10;99.90;;;;;;5394091;26;19992;-79
2024/04/15 07:19:07;;;;;;;6.45;2.80;;;15.10;99.90;;;;;;5394310;26;20349;-79
2024/04/15 07:21:32;;;;;;;6.53;3.03;;;15.10;99.90;;;;;;5403613;26;19992;-79
2024/04/15 07:23:58;;;;;;;3.63;2.80;;;15.10;99.90;;;;;;5395248;26;19996;-81
2024/04/15 07:26:23;;;;;;;7.82;2.67;;;15.20;99.90;;;;;;5390876;26;20431;-78
2024/04/15 07:28:52;;;;;;;11.05;3.72;;;15.10;99.90;;;;;;5400781;26;20703;-80
2024/04/15 07:31:17;;;;;;;7.25;3.05;;;15.10;99.90;;;;;;5407552;26;20029;-79
2024/04/15 07:33:43;;;;;;;7.28;2.95;;;15.10;99.90;;;;;;5406796;26;20460;-80
2024/04/15 07:36:08;;;;;;;6.70;3.13;;;15.10;99.90;;;;;;5408054;26;20601;-79
2024/04/15 07:38:34;;;;;;;7.93;2.85;;;15.10;99.90;;;;;;5405638;26;20537;-79
2024/04/15 07:40:59;;;;;;;5.88;2.92;;;15.10;99.90;;;;;;5400491;26;20012;-77
2024/04/15 07:43:26;;;;;;;7.95;3.20;;;15.10;99.90;;;;;;5399764;26;20458;-79
2024/04/15 07:45:51;;;;;;;7.45;3.17;;;15.10;99.90;;;;;;5402682;26;20077;-77
2024/04/15 07:48:17;;;;;;;6.65;2.75;;;15.10;99.90;;;;;;5398091;26;20000;-79
2024/04/15 07:50:43;;;;;;;8.65;2.55;;;15.10;99.90;;;;;;5391043;26;20001;-79
2024/04/15 07:53:09;;;;;;;5.75;2.35;;;15.20;99.90;;;;;;5403938;26;19999;-79
2024/04/15 07:55:34;;;;;;;3.97;2.20;;;15.10;99.90;;;;;;5407178;26;20003;-78
2024/04/15 07:58:00;;;;;;;5.07;2.10;;;15.10;99.90;;;;;;5398164;26;19999;-79
2024/04/15 08:00:25;;;;;;;8.35;2.45;;;15.10;99.90;;;;;;5402238;26;20010;-80
2024/04/15 08:02:51;;;;;;;4.15;1.92;;;15.00;99.90;;;;;;5406135;26;20462;-80
2024/04/15 08:05:17;;;;;;;3.50;1.75;;;15.00;99.90;;;;;;5404695;26;20004;-79
2024/04/15 08:07:42;;;;;;;3.88;2.08;;;15.00;99.90;;;;;;5433060;26;20356;-80
2024/04/15 08:10:08;;;;;;;4.05;1.80;;;14.90;99.90;;;;;;5398542;26;20012;-78
2024/04/15 08:12:34;;;;;;;4.20;2.33;;;14.80;99.90;;;;;;5399447;26;20014;-79
2024/04/15 08:14:59;;;;;;;3.50;1.65;;;14.80;99.90;;;;;;5400629;26;20004;-79
2024/04/15 08:17:25;;;;;;;3.33;1.80;;;14.80;99.90;;;;;;5401326;26;20004;-79
2024/04/15 08:19:52;;;;;;;7.70;2.13;;;14.70;99.90;;;;;;5399181;26;20014;-78
2024/04/15 08:22:18;;;;;;;5.85;2.00;;;14.60;99.90;;;;;;5389041;26;20400;-80
2024/04/15 08:24:47;;;;;;;3.22;1.63;;;14.60;99.90;;;;;;5402649;26;19995;-78
2024/04/15 08:27:13;;;;;;;5.03;1.63;;;14.50;99.90;;;;;;5409317;26;20412;-78
2024/04/15 08:29:38;;;;;;;4.70;1.80;;;14.40;99.90;;;;;;5408518;26;19999;-77
2024/04/15 08:32:04;;;;;;;3.75;1.58;;;14.30;99.90;;;;;;5406410;26;20007;-79
2024/04/15 08:34:30;;;;;;;5.43;2.00;;;14.30;99.90;;;;;;5406504;26;20000;-76
2024/04/15 08:36:55;;;;;;;6.32;1.73;;;14.30;99.90;;;;;;5412340;26;19991;-78
2024/04/15 08:39:21;;;;;;;8.10;2.28;;;14.30;99.90;;;;;;5408405;26;19995;-77
2024/04/15 08:41:58;;;;;;;5.22;2.10;;;14.20;99.90;;;;;;5396798;26;20011;-78
2024/04/15 08:44:25;;;;;;;7.57;1.95;;;14.10;99.90;;;;;;5396889;26;20004;-78
2024/04/15 08:46:52;;;;;;;12.70;1.70;;;14.00;99.90;;;;;;5406983;26;20015;-77
2024/04/15 08:49:18;;;;;;;5.03;2.00;;;14.00;99.90;;;;;;5400894;26;20005;-78
2024/04/15 08:51:45;;;;;;;7.63;1.80;;;13.90;99.90;;;;;;5390893;26;20040;-78
2024/04/15 08:54:11;;;;;;;6.32;1.88;;;13.80;99.90;;;;;;5400543;26;20336;-78
2024/04/15 08:56:41;;;;;;;9.23;2.03;;;13.90;99.90;;;;;;5409969;26;20000;-79
2024/04/15 08:59:08;;;;;;;9.45;1.95;;;13.90;99.90;;;;;;5409224;26;20464;-76
2024/04/15 09:01:35;;;;;;;6.43;2.13;;;13.90;99.90;;;;;;5437666;26;20004;-77
2024/04/15 09:04:00;;;;;;;9.35;2.72;;;13.90;99.90;;;;;;5405620;26;20085;-78
2024/04/15 09:06:27;;;;;;;5.70;2.28;;;13.80;99.90;;;;;;5400795;26;20020;-77
2024/04/15 09:08:53;;;;;;;2.78;1.65;;;13.80;99.90;;;;;;5398686;26;20004;-78
2024/04/15 09:11:18;;;;;;;9.90;1.88;;;13.90;99.90;;;;;;5403938;26;20081;-77
2024/04/15 09:13:44;;;;;;;9.02;2.03;;;14.10;99.90;;;;;;5394494;26;20080;-78
2024/04/15 09:16:09;;;;;;;6.55;2.10;;;14.10;99.90;;;;;;5389759;26;20015;-77
2024/04/15 09:18:35;;;;;;;4.50;1.95;;;14.10;99.90;;;;;;5408134;26;20035;-76
2024/04/15 09:21:00;;;;;;;13.40;2.70;;;14.20;99.90;;;;;;5398739;26;20481;-78
2024/04/15 09:23:26;;;;;;;6.43;2.08;;;14.20;99.90;;;;;;5387985;26;20000;-76
2024/04/15 09:25:52;;;;;;;8.45;2.17;;;14.20;99.90;;;;;;5408460;26;20006;-78
2024/04/15 09:28:17;;;;;;;6.22;1.98;;;14.20;99.90;;;;;;5407316;26;20007;-77
2024/04/15 09:30:44;;;;;;;7.68;2.83;;;14.00;99.90;;;;;;5406692;26;20464;-78
2024/04/15 09:33:12;;;;;;;4.18;2.90;;;14.10;99.90;;;;;;5407510;26;20007;-77
2024/04/15 09:35:38;;;;;;;6.28;2.80;;;14.20;99.90;;;;;;5402825;26;20004;-77
2024/04/15 09:38:07;;;;;;;5.15;2.80;;;14.30;99.90;;;;;;5401596;26;20000;-76
2024/04/15 09:40:36;;;;;;;6.38;2.60;;;14.20;99.90;;;;;;5397638;26;19995;-78
2024/04/15 09:43:02;;;;;;;5.78;2.03;;;14.20;99.90;;;;;;5403366;26;20036;-78
2024/04/15 09:45:29;;;;;;;6.38;2.60;;;14.20;99.90;;;;;;5391253;26;20016;-78
2024/04/15 09:47:56;;;;;;;7.43;2.38;;;14.10;99.90;;;;;;5391743;26;20007;-77
2024/04/15 09:50:22;;;;;;;8.00;3.25;;;14.20;99.90;;;;;;5404154;26;20027;-78
2024/04/15 09:52:56;;;;;;;7.72;2.42;;;14.30;99.90;;;;;;5398565;26;20043;-78
2024/04/15 09:55:30;;;;;;;8.63;2.40;;;14.30;99.90;;;;;;5406843;26;20068;-77
2024/04/15 09:57:57;;;;;;;4.28;2.35;;;14.40;99.90;;;;;;5406218;26;20521;-77
2024/04/15 10:00:26;;;;;;;5.65;2.13;;;14.40;99.90;;;;;;5404110;26;19996;-78
2024/04/15 10:02:53;;;;;;;4.40;2.58;;;14.40;99.90;;;;;;5401940;26;20008;-77
2024/04/15 10:05:24;;;;;;;7.55;2.72;;;14.20;99.90;;;;;;5405682;26;20079;-78
2024/04/15 10:07:56;;;;;;;10.90;2.40;;;14.40;99.90;;;;;;5395227;26;19999;-78
2024/04/15 10:10:26;;;;;;;5.65;2.47;;;14.50;99.90;;;;;;5391139;26;19996;-78
2024/04/15 10:12:54;;;;;;;4.82;2.85;;;14.70;99.90;;;;;;5408290;26;20013;-77
2024/04/15 10:15:22;;;;;;;5.38;2.35;;;14.70;99.90;;;;;;5397150;26;19999;-77
2024/04/15 10:18:05;;;;;;;8.02;2.80;;;14.60;99.90;;;;;;5385696;26;20000;-78
2024/04/15 10:20:36;;;;;;;14.48;3.30;;;14.60;99.90;;;;;;5408557;26;19999;-77
2024/04/15 10:23:07;;;;;;;5.90;2.58;;;14.70;99.90;;;;;;5410567;26;20010;-77
2024/04/15 10:25:36;;;;;;;4.82;2.50;;;14.70;99.90;;;;;;5406911;26;20072;-77
2024/04/15 10:28:04;;;;;;;10.52;2.60;;;14.70;99.90;;;;;;5408493;26;20000;-76
2024/04/15 10:30:31;;;;;;;5.93;2.85;;;14.70;99.90;;;;;;5401884;26;19999;-76
2024/04/15 10:33:02;;;;;;;6.18;2.90;;;14.70;99.90;;;;;;5399887;26;20353;-78
2024/04/15 10:35:28;;;;;;;;;;;14.80;99.90;;;;;;5430519;26;20015;-78
2024/04/15 10:37:57;;;;;;;7.97;2.78;;;14.70;99.90;;;;;;5398730;26;19956;-77
2024/04/15 10:40:36;;;;;;;6.80;3.08;;;14.70;99.90;;;;;;5390224;26;19996;-77
2024/04/15 10:43:03;;;;;;;8.13;3.30;;;14.70;99.90;;;;;;5399014;26;20016;-77
2024/04/15 10:45:29;;;;;;;10.10;3.53;;;14.70;99.90;;;;;;5400618;26;20678;-77
2024/04/15 10:47:55;;;;;;;9.68;3.15;;;14.60;99.90;;;;;;5390938;26;20461;-77
2024/04/15 10:50:22;;;;;;;8.50;3.30;;;14.70;99.90;;;;;;5391985;26;20454;-77
2024/04/15 10:52:48;;;;;;;8.43;3.03;;;14.70;99.90;;;;;;5410854;26;20125;-78
2024/04/15 10:55:15;;;;;;;5.10;2.65;;;14.80;99.90;;;;;;5407727;26;20015;-77
2024/04/15 10:57:41;;;;;;;6.28;3.28;;;14.90;99.90;;;;;;5404144;26;20004;-77
2024/04/15 11:00:17;;;;;;;7.55;2.67;;;14.90;99.90;;;;;;5405742;26;20018;-76
2024/04/15 11:02:51;;;;;;;4.68;3.03;;;14.90;99.90;;;;;;5397691;26;20083;-77
2024/04/15 11:05:17;;;;;;;7.78;2.83;;;15.00;99.90;;;;;;5397704;26;20014;-77
2024/04/15 11:07:44;;;;;;;12.60;4.00;;;15.00;99.90;;;;;;5401831;26;20309;-78
2024/04/15 11:10:14;;;;;;;7.97;4.00;;;15.10;99.90;;;;;;5425047;26;20059;-75
2024/04/15 11:12:40;;;;;;;7.43;3.28;;;15.20;99.90;;;;;;5389972;26;20012;-77
2024/04/15 11:15:11;;;;;;;8.68;3.55;;;15.40;99.90;;;;;;5405841;26;19999;-76
2024/04/15 11:17:50;;;;;;;6.95;3.15;;;15.70;99.90;;;;;;5400383;26;20015;-77
2024/04/15 11:20:17;;;;;;;6.35;2.92;;;15.90;99.90;;;;;;5398771;26;20011;-78
2024/04/15 11:22:42;;;;;;;7.57;3.63;;;16.10;99.90;;;;;;5407319;26;20427;-78
2024/04/15 11:25:10;;;;;;;7.47;3.05;;;16.20;99.90;;;;;;5409446;26;20466;-77
2024/04/15 11:27:37;;;;;;;8.43;2.90;;;16.10;99.90;;;;;;5404384;26;20000;-77
2024/04/15 11:30:06;;;;;;;5.43;2.75;;;15.80;99.90;;;;;;5405073;26;20004;-77
2024/04/15 11:32:33;;;;;;;10.75;2.90;;;15.80;99.90;;;;;;5405423;26;20010;-77
2024/04/15 11:34:59;;;;;;;8.23;3.95;;;15.70;99.90;;;;;;5393347;26;19999;-77
2024/04/15 11:37:25;;;;;;;10.57;3.50;;;15.50;99.90;;;;;;5406058;26;20090;-76
2024/04/15 11:39:51;;;;;;;10.63;3.53;;;15.40;99.90;;;;;;5402164;26;20013;-76
2024/04/15 11:42:17;;;;;;;5.63;2.88;;;15.70;99.90;;;;;;5389295;26;20004;-77
2024/04/15 11:44:43;;;;;;;10.45;3.63;;;15.70;99.90;;;;;;5391388;26;20027;-78
2024/04/15 11:47:15;;;;;;;6.53;3.47;;;15.60;99.90;;;;;;5417305;26;20069;-76
2024/04/15 11:49:44;;;;;;;7.72;2.80;;;15.60;99.90;;;;;;5406684;26;20004;-76
2024/04/15 11:52:09;;;;;;;8.30;3.80;;;15.50;99.90;;;;;;5414310;26;20353;-76
2024/04/15 11:54:39;;;;;;;6.53;3.42;;;15.50;99.90;;;;;;5416447;26;20041;-76
2024/04/15 11:57:04;;;;;;;7.20;3.42;;;15.40;99.90;;;;;;5400698;26;20015;-79
2024/04/15 11:59:30;;;;;;;7.47;3.28;;;15.40;99.90;;;;;;5397692;26;20468;-76
2024/04/15 12:01:56;;;;;;;6.30;3.15;;;15.40;99.90;;;;;;5401620;26;20031;-77
2024/04/15 12:04:23;;;;;;;4.65;2.70;;;15.40;99.90;;;;;;5398772;26;20484;-79
2024/04/15 12:06:52;;;;;;;5.25;3.33;;;15.40;99.90;;;;;;5387514;26;20000;-77
2024/04/15 12:09:23;;;;;;;8.45;3.67;;;15.40;99.90;;;;;;5408160;26;20007;-77
2024/04/15 12:11:49;;;;;;;5.57;3.00;;;15.40;99.90;;;;;;5403468;26;20048;-78
2024/04/15 12:14:14;;;;;;;3.97;3.30;;;15.40;99.90;;;;;;5395403;26;20049;-77
2024/04/15 12:16:40;;;;;;;6.63;3.30;;;15.30;99.90;;;;;;5392100;26;20048;-77
2024/04/15 12:19:05;;;;;;;5.78;3.05;;;15.30;99.90;;;;;;5411674;26;20000;-77
2024/04/15 12:21:31;;;;;;;4.68;3.22;;;15.20;99.90;;;;;;5407372;26;20798;-78
2024/04/15 12:23:57;;;;;;;5.97;2.78;;;15.10;99.90;;;;;;5405541;26;19996;-78
2024/04/15 12:26:25;;;;;;;4.57;3.15;;;15.10;99.90;;;;;;5405365;26;20015;-78
2024/04/15 12:28:51;;;;;;;5.38;2.97;;;15.10;99.90;;;;;;5398675;26;20076;-76
2024/04/15 12:31:16;;;;;;;6.57;2.92;;;15.20;99.90;;;;;;5402069;26;20477;-77
2024/04/15 12:33:42;;;;;;;10.77;3.50;;;15.30;99.90;;;;;;5407780;26;20512;-78
2024/04/15 12:36:08;;;;;;;6.20;3.20;;;15.50;99.90;;;;;;5398928;26;20461;-77
2024/04/15 12:38:34;;;;;;;9.05;3.75;;;15.60;99.90;;;;;;5397233;26;20361;-77
2024/04/15 12:41:00;;;;;;;6.50;3.13;;;15.80;99.90;;;;;;5407314;26;20015;-78